Time;durP1;ratioP1;P1;durP2;ratioP2;P2;SDS_P1;SDS_P2;PMS_P1;PMS_P2;Temp;Humidity;BMP_temperature;BMP_pressure;BME280_temperature;BME280_humidity;BME280_pressure;Samples;Min_cycle;Max_cycle;Signal;HPM_P1;HPM_P2
2021/04/06 00:00:01;;;;;;;7.20;1.52;;;1.40;99.90;;;;;;4893616;29;20035;-72
2021/04/06 00:02:34;;;;;;;7.75;1.58;;;1.40;99.90;;;;;;4890218;29;20358;-74
2021/04/06 00:05:05;;;;;;;6.32;1.80;;;1.40;99.90;;;;;;4890314;29;20044;-75
2021/04/06 00:07:32;;;;;;;7.07;1.85;;;1.40;99.90;;;;;;4896888;29;20036;-74
2021/04/06 00:10:11;;;;;;;4.20;1.25;;;1.40;99.90;;;;;;4883866;29;20132;-77
2021/04/06 00:12:38;;;;;;;3.92;1.50;;;1.40;99.90;;;;;;4875716;29;20035;-74
2021/04/06 00:15:08;;;;;;;6.75;1.70;;;1.30;99.90;;;;;;4890573;29;20031;-75
2021/04/06 00:17:35;;;;;;;4.70;1.15;;;1.30;99.90;;;;;;4893439;29;20052;-77
2021/04/06 00:20:04;;;;;;;4.85;1.30;;;1.30;99.90;;;;;;4897199;29;20072;-73
2021/04/06 00:22:31;;;;;;;4.82;1.30;;;1.30;99.90;;;;;;4900224;29;20021;-75
2021/04/06 00:24:59;;;;;;;4.18;1.63;;;1.30;99.90;;;;;;4907714;29;20506;-75
2021/04/06 00:27:29;;;;;;;4.55;1.90;;;1.20;99.90;;;;;;4899300;29;20033;-73
2021/04/06 00:30:08;;;;;;;8.38;1.63;;;1.20;99.90;;;;;;4896504;29;20032;-73
2021/04/06 00:32:34;;;;;;;5.45;1.70;;;1.20;99.90;;;;;;4898472;29;20043;-75
2021/04/06 00:35:02;;;;;;;4.97;1.50;;;1.20;99.90;;;;;;4885742;29;20063;-73
2021/04/06 00:37:29;;;;;;;7.10;1.90;;;1.20;99.90;;;;;;4888479;29;20206;-73
2021/04/06 00:39:59;;;;;;;2.97;1.35;;;1.20;99.90;;;;;;4897407;29;20107;-73
2021/04/06 00:42:29;;;;;;;3.55;1.65;;;1.10;99.90;;;;;;4894961;29;20031;-75
2021/04/06 00:45:01;;;;;;;5.40;1.42;;;1.20;99.90;;;;;;4896456;29;20081;-75
2021/04/06 00:47:29;;;;;;;7.78;1.33;;;1.20;99.90;;;;;;4882094;29;20131;-72
2021/04/06 00:49:57;;;;;;;5.93;1.67;;;1.20;99.90;;;;;;4889286;29;20428;-74
2021/04/06 00:52:25;;;;;;;4.57;1.48;;;1.20;99.90;;;;;;4888776;29;20044;-76
2021/04/06 00:54:53;;;;;;;3.83;1.10;;;1.10;99.90;;;;;;4891782;29;20488;-75
2021/04/06 00:57:22;;;;;;;4.13;1.95;;;1.20;99.90;;;;;;4888887;29;20044;-75
2021/04/06 01:00:22;;;;;;;2.80;1.50;;;1.10;99.90;;;;;;4897591;29;20029;-73
2021/04/06 01:03:10;;;;;;;4.53;1.45;;;1.10;99.90;;;;;;4885513;29;20021;-74
2021/04/06 01:05:58;;;;;;;15.85;2.25;;;1.00;99.90;;;;;;4888842;29;20044;-77
2021/04/06 01:08:36;;;;;;;5.47;1.23;;;1.10;99.90;;;;;;4877555;29;20025;-74
2021/04/06 01:11:04;;;;;;;18.83;8.70;;;1.10;99.90;;;;;;4885627;29;20029;-73
2021/04/06 01:13:32;;;;;;;6.13;2.08;;;1.10;99.90;;;;;;4890225;29;20032;-73
2021/04/06 01:15:58;;;;;;;5.40;2.22;;;1.10;99.90;;;;;;4874070;29;20037;-72
2021/04/06 01:18:26;;;;;;;6.80;2.33;;;1.10;99.90;;;;;;4870599;29;20033;-74
2021/04/06 01:20:55;;;;;;;7.20;1.55;;;1.10;99.90;;;;;;4872110;29;20044;-73
2021/04/06 01:23:21;;;;;;;5.22;1.45;;;1.10;99.90;;;;;;4874340;29;20937;-75
2021/04/06 01:25:54;;;;;;;3.85;1.50;;;1.10;99.90;;;;;;4877320;29;20514;-75
2021/04/06 01:28:30;;;;;;;3.90;1.17;;;1.10;99.90;;;;;;4870843;29;20764;-78
2021/04/06 01:30:57;;;;;;;5.65;1.52;;;1.10;99.90;;;;;;4875529;29;20136;-73
2021/04/06 01:33:32;;;;;;;7.15;2.13;;;1.00;99.90;;;;;;4875926;29;20036;-75
2021/04/06 01:36:03;;;;;;;3.15;1.92;;;1.00;99.90;;;;;;4872406;29;20036;-74
2021/04/06 01:38:32;;;;;;;5.80;1.80;;;1.00;99.90;;;;;;4871738;29;20123;-73
2021/04/06 01:41:01;;;;;;;3.30;1.15;;;1.00;99.90;;;;;;4871290;29;20120;-74
2021/04/06 01:43:29;;;;;;;6.43;1.73;;;1.00;99.90;;;;;;4869817;29;20492;-74
2021/04/06 01:46:10;;;;;;;2.08;1.23;;;1.00;99.90;;;;;;4871125;29;20131;-73
2021/04/06 01:48:36;;;;;;;4.05;1.65;;;0.90;99.90;;;;;;4867800;29;20152;-72
2021/04/06 01:51:02;;;;;;;7.72;2.20;;;1.00;99.90;;;;;;4871286;29;20136;-73
2021/04/06 01:53:27;;;;;;;5.72;2.05;;;1.00;99.90;;;;;;4874217;29;20021;-76
2021/04/06 01:56:02;;;;;;;4.70;1.55;;;0.90;99.90;;;;;;4872997;29;20052;-73
2021/04/06 01:58:29;;;;;;;4.72;1.50;;;0.90;99.90;;;;;;4874853;29;20045;-73
2021/04/06 02:01:12;;;;;;;3.33;1.50;;;0.90;99.90;;;;;;4869869;29;20025;-72
2021/04/06 02:03:51;;;;;;;4.65;1.50;;;0.80;99.90;;;;;;4867757;29;20029;-74
2021/04/06 02:06:17;;;;;;;5.13;2.78;;;0.90;99.90;;;;;;4867668;29;20152;-71
2021/04/06 02:08:51;;;;;;;4.63;1.60;;;1.00;99.90;;;;;;4869557;29;20055;-72
2021/04/06 02:11:26;;;;;;;3.78;1.55;;;0.90;99.90;;;;;;4867517;29;20043;-74
2021/04/06 02:13:52;;;;;;;7.63;2.10;;;0.90;99.90;;;;;;4868646;29;20527;-73
2021/04/06 02:16:18;;;;;;;6.63;1.98;;;0.90;99.90;;;;;;4873696;29;20200;-75
2021/04/06 02:18:52;;;;;;;8.13;2.08;;;1.00;99.90;;;;;;4880390;29;20033;-75
2021/04/06 02:21:17;;;;;;;6.60;2.20;;;1.00;99.90;;;;;;4873042;29;20143;-73
2021/04/06 02:23:44;;;;;;;3.70;1.52;;;1.00;99.90;;;;;;4887538;29;20168;-74
2021/04/06 02:26:14;;;;;;;7.28;1.88;;;1.00;99.90;;;;;;4873514;29;20056;-74
2021/04/06 02:28:40;;;;;;;7.63;2.75;;;1.10;99.90;;;;;;4874174;29;20084;-78
2021/04/06 02:31:06;;;;;;;6.05;1.80;;;1.00;99.90;;;;;;4875229;29;20866;-76
2021/04/06 02:33:36;;;;;;;7.35;1.88;;;1.00;99.90;;;;;;4874861;29;20063;-74
2021/04/06 02:36:05;;;;;;;6.70;3.05;;;1.00;99.90;;;;;;4871173;29;20037;-75
2021/04/06 02:38:38;;;;;;;4.53;1.70;;;1.00;99.90;;;;;;4872757;29;20028;-73
2021/04/06 02:41:22;;;;;;;3.00;1.60;;;1.00;99.90;;;;;;4878173;29;20520;-74
2021/04/06 02:43:55;;;;;;;3.22;1.88;;;;;;;;;;4873613;29;20484;-75
2021/04/06 02:46:25;;;;;;;8.48;3.03;;;1.00;99.90;;;;;;4873894;29;20064;-75
2021/04/06 02:48:52;;;;;;;8.10;1.75;;;0.90;99.90;;;;;;4874262;29;20044;-74
2021/04/06 02:51:18;;;;;;;6.47;2.20;;;0.90;99.90;;;;;;4880121;29;20075;-74
2021/04/06 02:53:48;;;;;;;6.15;2.20;;;0.90;99.90;;;;;;4876886;29;20064;-73
2021/04/06 02:56:31;;;;;;;5.30;2.22;;;0.90;99.90;;;;;;4874726;29;20468;-74
2021/04/06 02:59:11;;;;;;;7.00;2.42;;;0.90;99.90;;;;;;4877230;29;20047;-72
2021/04/06 03:01:37;;;;;;;5.68;3.10;;;0.90;99.90;;;;;;4879193;29;20148;-72
2021/04/06 03:04:15;;;;;;;4.78;2.00;;;0.80;99.90;;;;;;4880207;29;20029;-71
2021/04/06 03:06:40;;;;;;;8.13;2.30;;;0.80;99.90;;;;;;4875411;29;20152;-73
2021/04/06 03:09:06;;;;;;;4.72;2.58;;;0.80;99.90;;;;;;4882535;29;20041;-72
2021/04/06 03:11:41;;;;;;;4.50;2.10;;;0.80;99.90;;;;;;4887119;29;20039;-72
2021/04/06 03:14:07;;;;;;;6.55;2.03;;;0.80;99.90;;;;;;4884980;29;20184;-73
2021/04/06 03:16:37;;;;;;;5.50;2.38;;;0.80;99.90;;;;;;4894059;29;20109;-72
2021/04/06 03:19:04;;;;;;;8.10;2.25;;;0.70;99.90;;;;;;4888618;29;20028;-74
2021/04/06 03:21:31;;;;;;;5.10;2.13;;;0.70;99.90;;;;;;4879288;29;20037;-77
2021/04/06 03:23:57;;;;;;;6.28;2.47;;;0.70;99.90;;;;;;4888598;29;20037;-73
2021/04/06 03:26:23;;;;;;;8.93;2.50;;;0.70;99.90;;;;;;4890444;29;20041;-75
2021/04/06 03:28:48;;;;;;;6.53;2.42;;;0.60;99.90;;;;;;4892354;29;20040;-76
2021/04/06 03:31:18;;;;;;;12.32;2.47;;;0.60;99.90;;;;;;4887245;29;20029;-74
2021/04/06 03:33:46;;;;;;;4.40;2.30;;;0.60;99.90;;;;;;4879178;29;20049;-77
2021/04/06 03:36:29;;;;;;;8.57;2.40;;;0.50;99.90;;;;;;4881207;29;20041;-74
2021/04/06 03:38:57;;;;;;;6.13;3.53;;;0.50;99.90;;;;;;4882750;29;20025;-77
2021/04/06 03:41:24;;;;;;;5.80;3.30;;;0.50;99.90;;;;;;4877745;29;20037;-73
2021/04/06 03:43:50;;;;;;;8.77;4.32;;;0.50;99.90;;;;;;4878205;29;20117;-72
2021/04/06 03:46:25;;;;;;;4.43;2.80;;;0.60;99.90;;;;;;4875161;29;20052;-75
2021/04/06 03:48:52;;;;;;;9.70;4.30;;;0.60;99.90;;;;;;4875087;29;20544;-72
2021/04/06 03:51:29;;;;;;;7.05;2.65;;;0.50;99.90;;;;;;4876843;29;20025;-72
2021/04/06 03:53:55;;;;;;;5.68;3.30;;;0.50;99.90;;;;;;4875618;29;20116;-73
2021/04/06 03:56:33;;;;;;;4.40;2.50;;;0.50;99.90;;;;;;4873902;29;20049;-73
2021/04/06 03:59:01;;;;;;;5.72;3.08;;;0.60;99.90;;;;;;4879849;29;20061;-72
2021/04/06 04:01:27;;;;;;;6.53;2.90;;;0.50;99.90;;;;;;4901082;29;20092;-78
2021/04/06 04:03:57;;;;;;;6.07;2.60;;;0.50;99.90;;;;;;4897561;29;20061;-78
2021/04/06 04:06:27;;;;;;;6.40;2.67;;;0.40;99.90;;;;;;4894301;29;20112;-79
2021/04/06 04:08:55;;;;;;;7.88;2.70;;;0.40;99.90;;;;;;4882304;29;20037;-77
2021/04/06 04:11:22;;;;;;;5.40;2.70;;;0.40;99.90;;;;;;4880638;29;20033;-78
2021/04/06 04:13:51;;;;;;;5.38;2.50;;;0.30;99.90;;;;;;4882801;29;20060;-75
2021/04/06 04:16:16;;;;;;;7.85;3.22;;;0.40;99.90;;;;;;4875777;29;20033;-76
2021/04/06 04:18:42;;;;;;;12.20;4.97;;;0.40;99.90;;;;;;4877679;29;20045;-76
2021/04/06 04:21:12;;;;;;;5.95;3.10;;;0.50;99.90;;;;;;4877202;29;20032;-77
2021/04/06 04:23:37;;;;;;;4.28;2.70;;;0.30;99.90;;;;;;4882066;29;20037;-77
2021/04/06 04:26:03;;;;;;;5.45;2.85;;;0.30;99.90;;;;;;4877972;29;22150;-79
2021/04/06 04:28:29;;;;;;;5.63;3.45;;;0.30;99.90;;;;;;4882346;29;20025;-77
2021/04/06 04:30:56;;;;;;;7.30;2.85;;;0.30;99.90;;;;;;4894580;29;20032;-77
2021/04/06 04:33:22;;;;;;;5.70;2.80;;;0.30;99.90;;;;;;4879947;29;20032;-78
2021/04/06 04:35:47;;;;;;;5.30;2.85;;;0.30;99.90;;;;;;4908243;29;20028;-78
2021/04/06 04:38:13;;;;;;;6.85;2.50;;;0.30;99.90;;;;;;4898869;29;20032;-80
2021/04/06 04:40:41;;;;;;;7.07;3.08;;;0.30;99.90;;;;;;4900694;29;20035;-77
2021/04/06 04:43:08;;;;;;;7.20;3.50;;;0.30;99.90;;;;;;4903215;29;20024;-79
2021/04/06 04:45:34;;;;;;;5.35;2.53;;;0.30;99.90;;;;;;4896405;29;20064;-78
2021/04/06 04:47:59;;;;;;;5.25;3.22;;;0.30;99.90;;;;;;4896513;29;20025;-78
2021/04/06 04:50:25;;;;;;;5.35;3.50;;;0.30;99.90;;;;;;4898488;29;20028;-79
2021/04/06 04:52:51;;;;;;;4.97;3.05;;;;;;;;;;4892149;29;20032;-83
2021/04/06 04:55:22;;;;;;;6.90;3.38;;;0.30;99.90;;;;;;4902722;29;20052;-79
2021/04/06 04:57:48;;;;;;;10.60;2.55;;;0.40;99.90;;;;;;4893430;29;20104;-78
2021/04/06 05:00:15;;;;;;;7.88;2.58;;;0.40;99.90;;;;;;4894773;29;20080;-79
2021/04/06 05:02:41;;;;;;;4.30;3.03;;;0.40;99.90;;;;;;4885478;29;20096;-79
2021/04/06 05:05:08;;;;;;;4.90;3.00;;;0.40;99.90;;;;;;4900038;29;20470;-77
2021/04/06 05:07:37;;;;;;;7.55;2.65;;;0.40;99.90;;;;;;4891652;29;20400;-82
2021/04/06 05:10:07;;;;;;;8.32;2.70;;;0.50;99.90;;;;;;4890137;29;20037;-79
2021/04/06 05:12:33;;;;;;;5.28;2.92;;;0.50;99.90;;;;;;4892115;29;20099;-78
2021/04/06 05:14:59;;;;;;;6.68;3.08;;;0.60;99.90;;;;;;4897981;29;20508;-78
2021/04/06 05:17:28;;;;;;;6.63;3.10;;;0.60;99.90;;;;;;4899100;29;20037;-82
2021/04/06 05:19:57;;;;;;;5.18;3.08;;;;;;;;;;4899205;29;20034;-82
2021/04/06 05:22:22;;;;;;;8.15;2.80;;;0.70;99.90;;;;;;4895900;29;20056;-80
2021/04/06 05:24:48;;;;;;;6.38;3.00;;;1.00;99.90;;;;;;4897791;29;20040;-79
2021/04/06 05:27:14;;;;;;;4.60;2.92;;;1.20;99.90;;;;;;4902370;29;20047;-81
2021/04/06 05:29:40;;;;;;;6.38;2.65;;;1.20;99.90;;;;;;4902125;29;20024;-79
2021/04/06 05:32:06;;;;;;;6.03;3.80;;;1.60;99.90;;;;;;4889192;29;20035;-80
2021/04/06 05:34:32;;;;;;;4.72;2.45;;;2.20;99.90;;;;;;4899835;29;20048;-81
2021/04/06 05:36:58;;;;;;;5.40;2.58;;;;;;;;;;4898194;29;20041;-81
2021/04/06 05:39:24;;;;;;;4.47;2.65;;;2.60;99.90;;;;;;4894389;29;20089;-80
2021/04/06 05:41:50;;;;;;;11.02;3.85;;;2.80;99.90;;;;;;4907342;29;20035;-78
2021/04/06 05:44:17;;;;;;;5.18;2.80;;;2.80;99.90;;;;;;4908146;29;20032;-79
2021/04/06 05:46:46;;;;;;;7.68;3.17;;;2.80;99.90;;;;;;4896089;29;20076;-79
2021/04/06 05:49:20;;;;;;;9.30;3.58;;;3.10;99.90;;;;;;4888292;29;20081;-79
2021/04/06 05:51:46;;;;;;;8.90;2.85;;;3.00;99.90;;;;;;4902655;29;20028;-80
2021/04/06 05:54:13;;;;;;;6.95;2.83;;;3.50;99.90;;;;;;4880913;29;20598;-77
2021/04/06 05:56:39;;;;;;;6.35;2.83;;;3.80;99.90;;;;;;4894170;29;20024;-80
2021/04/06 05:59:06;;;;;;;5.70;2.50;;;4.40;99.80;;;;;;4911244;29;20059;-81
2021/04/06 06:01:34;;;;;;;7.93;2.65;;;4.40;99.80;;;;;;4905074;29;20032;-79
2021/04/06 06:04:01;;;;;;;4.25;2.80;;;5.10;97.50;;;;;;4907500;29;20052;-82
2021/04/06 06:06:26;;;;;;;7.00;3.10;;;5.40;93.60;;;;;;4899875;29;20037;-79
2021/04/06 06:09:04;;;;;;;6.60;3.17;;;5.40;93.70;;;;;;4896457;29;20048;-81
2021/04/06 06:11:30;;;;;;;6.03;2.80;;;5.40;93.90;;;;;;4898256;29;20054;-78
2021/04/06 06:13:57;;;;;;;7.55;2.85;;;5.80;92.10;;;;;;4905924;29;20040;-80
2021/04/06 06:16:25;;;;;;;7.00;2.65;;;5.70;92.40;;;;;;4905477;29;20100;-79
2021/04/06 06:18:59;;;;;;;5.68;2.50;;;6.20;90.10;;;;;;4916561;29;20043;-81
2021/04/06 06:21:39;;;;;;;6.53;2.95;;;6.00;90.00;;;;;;4910303;29;20025;-80
2021/04/06 06:24:06;;;;;;;4.75;2.58;;;6.30;87.90;;;;;;4909706;29;20392;-77
2021/04/06 06:26:35;;;;;;;7.25;3.03;;;6.60;83.70;;;;;;4898325;29;20047;-76
2021/04/06 06:29:26;;;;;;;7.38;2.90;;;6.50;85.10;;;;;;4909477;29;20047;-78
2021/04/06 06:31:57;;;;;;;5.13;2.65;;;6.80;82.90;;;;;;4902642;29;20029;-77
2021/04/06 06:34:33;;;;;;;7.30;3.22;;;6.80;82.80;;;;;;4909378;29;20060;-83
2021/04/06 06:37:13;;;;;;;6.05;3.70;;;7.60;79.70;;;;;;4902508;29;20025;-83
2021/04/06 06:39:52;;;;;;;5.82;2.35;;;8.10;76.10;;;;;;4904525;29;20096;-82
2021/04/06 06:42:20;;;;;;;5.30;3.35;;;9.10;70.70;;;;;;4884490;29;20480;-81
2021/04/06 06:44:46;;;;;;;5.35;3.40;;;;;;;;;;4884507;29;20326;-83
2021/04/06 06:47:14;;;;;;;5.38;2.42;;;10.10;62.60;;;;;;4892930;29;20028;-80
2021/04/06 06:49:42;;;;;;;6.47;2.63;;;9.70;62.50;;;;;;4892224;29;20028;-78
2021/04/06 06:52:28;;;;;;;5.10;3.30;;;9.60;63.50;;;;;;4891059;29;20033;-81
2021/04/06 06:55:00;;;;;;;3.97;2.35;;;9.90;63.70;;;;;;4897893;29;20026;-83
2021/04/06 06:57:33;;;;;;;6.78;3.00;;;9.70;63.10;;;;;;4901312;29;20037;-77
2021/04/06 07:00:23;;;;;;;6.10;2.88;;;9.80;63.20;;;;;;4892935;29;20483;-80
2021/04/06 07:02:50;;;;;;;4.95;2.67;;;10.90;60.00;;;;;;4892656;29;20028;-81
2021/04/06 07:05:28;;;;;;;5.35;2.63;;;11.80;56.30;;;;;;4880183;29;20496;-80
2021/04/06 07:07:57;;;;;;;4.30;2.63;;;12.20;55.00;;;;;;4880383;29;20040;-78
2021/04/06 07:10:25;;;;;;;3.58;2.28;;;11.90;55.50;;;;;;4882504;29;20096;-75
2021/04/06 07:13:02;;;;;;;5.00;2.38;;;10.90;56.90;;;;;;4901319;29;20472;-75
2021/04/06 07:15:29;;;;;;;5.13;2.83;;;9.90;59.50;;;;;;4899649;29;20419;-77
2021/04/06 07:18:20;;;;;;;6.45;2.33;;;9.90;59.80;;;;;;4894025;29;20380;-75
2021/04/06 07:20:55;;;;;;;4.43;2.30;;;11.00;58.50;;;;;;4891169;29;20056;-77
2021/04/06 07:23:56;;;;;;;2.97;2.53;;;10.70;57.40;;;;;;4886032;29;20555;-77
2021/04/06 07:26:25;;;;;;;3.42;2.13;;;9.80;60.30;;;;;;4890220;29;20399;-78
2021/04/06 07:28:51;;;;;;;6.45;3.15;;;10.80;58.40;;;;;;4894100;29;20400;-76
2021/04/06 07:31:24;;;;;;;5.18;2.85;;;10.90;58.40;;;;;;4902782;29;20373;-77
2021/04/06 07:33:51;;;;;;;7.00;3.25;;;10.70;57.80;;;;;;4899343;29;20506;-75
2021/04/06 07:36:25;;;;;;;5.30;3.17;;;10.90;58.70;;;;;;4900277;29;20028;-79
2021/04/06 07:39:05;;;;;;;5.07;2.60;;;11.70;55.60;;;;;;4899979;29;20024;-75
2021/04/06 07:41:38;;;;;;;6.82;3.42;;;11.40;56.10;;;;;;4898354;29;20068;-76
2021/04/06 07:44:07;;;;;;;4.43;3.15;;;10.60;57.40;;;;;;4896179;29;20083;-75
2021/04/06 07:46:33;;;;;;;4.60;3.15;;;9.50;60.30;;;;;;4896024;29;20064;-75
2021/04/06 07:49:06;;;;;;;7.97;2.92;;;8.60;63.30;;;;;;4899149;29;20075;-74
2021/04/06 07:51:39;;;;;;;6.93;3.00;;;8.30;65.20;;;;;;4898583;29;20029;-76
2021/04/06 07:54:12;;;;;;;5.88;3.10;;;8.40;65.70;;;;;;4899054;29;20029;-75
2021/04/06 07:56:54;;;;;;;7.97;2.88;;;7.80;66.80;;;;;;4890525;29;20078;-76
2021/04/06 07:59:23;;;;;;;5.45;3.00;;;7.50;67.90;;;;;;4894543;29;20033;-77
2021/04/06 08:01:52;;;;;;;6.57;3.35;;;7.40;71.00;;;;;;4890381;29;20089;-78
2021/04/06 08:04:19;;;;;;;6.13;2.92;;;8.00;68.40;;;;;;4889185;29;20411;-76
2021/04/06 08:06:56;;;;;;;6.70;3.65;;;8.00;68.70;;;;;;4900438;29;20072;-77
2021/04/06 08:09:31;;;;;;;7.93;2.97;;;8.30;68.50;;;;;;4895746;29;20020;-75
2021/04/06 08:12:14;;;;;;;5.45;2.95;;;8.90;65.90;;;;;;4900750;29;20037;-75
2021/04/06 08:14:47;;;;;;;7.80;3.50;;;8.80;66.10;;;;;;4881831;29;20475;-76
2021/04/06 08:17:31;;;;;;;6.00;3.47;;;7.50;70.60;;;;;;4895558;29;20028;-76
2021/04/06 08:20:22;;;;;;;6.10;3.10;;;7.40;71.70;;;;;;4900612;29;20040;-75
2021/04/06 08:22:59;;;;;;;6.97;2.95;;;7.40;72.70;;;;;;4890748;29;20116;-75
2021/04/06 08:25:30;;;;;;;9.75;3.67;;;7.10;73.60;;;;;;4903939;29;20488;-78
2021/04/06 08:27:58;;;;;;;5.55;3.40;;;7.10;74.30;;;;;;4901831;29;20170;-76
2021/04/06 08:30:25;;;;;;;6.53;3.25;;;6.80;76.00;;;;;;4898814;29;20155;-76
2021/04/06 08:32:56;;;;;;;7.68;4.55;;;6.60;77.90;;;;;;4897678;29;20041;-75
2021/04/06 08:35:40;;;;;;;;;;;6.10;83.10;;;;;;4903725;29;20092;-76
2021/04/06 08:38:28;;;;;;;8.75;3.72;;;5.90;86.90;;;;;;4903585;29;20457;-75
2021/04/06 08:40:59;;;;;;;7.53;3.42;;;5.60;90.80;;;;;;4893852;29;20032;-76
2021/04/06 08:43:27;;;;;;;;;;;5.70;91.90;;;;;;4896605;29;20411;-76
2021/04/06 08:45:54;;;;;;;19.15;5.13;;;6.60;90.10;;;;;;4899591;29;20013;-76
2021/04/06 08:51:27;;;;;;;8.60;5.43;;;7.30;80.20;;;;;;4896013;29;20072;-76
2021/04/06 08:53:56;;;;;;;6.30;3.40;;;6.80;82.20;;;;;;4886530;29;20448;-77
2021/04/06 08:56:24;;;;;;;8.52;3.25;;;6.80;82.70;;;;;;4898329;29;20032;-76
2021/04/06 08:58:50;;;;;;;6.13;3.67;;;6.30;86.40;;;;;;4896181;29;20021;-75
2021/04/06 09:01:20;;;;;;;8.35;4.47;;;5.90;91.10;;;;;;4897260;29;20024;-76
2021/04/06 09:03:45;;;;;;;15.90;6.18;;;5.70;92.70;;;;;;4894881;29;20025;-76
2021/04/06 09:06:13;;;;;;;8.73;3.70;;;5.70;92.90;;;;;;4884222;29;20484;-76
2021/04/06 09:08:56;;;;;;;6.10;3.88;;;5.80;92.50;;;;;;4888573;29;20025;-76
2021/04/06 09:11:25;;;;;;;5.25;3.70;;;5.60;93.70;;;;;;4891406;29;20055;-76
2021/04/06 09:13:52;;;;;;;7.43;3.70;;;5.50;95.30;;;;;;4894353;29;20387;-76
2021/04/06 09:16:29;;;;;;;9.77;4.00;;;5.30;96.40;;;;;;4891399;29;20440;-76
2021/04/06 09:18:56;;;;;;;11.00;4.35;;;5.40;97.60;;;;;;4889878;29;20040;-76
2021/04/06 09:21:24;;;;;;;13.55;4.97;;;5.50;96.60;;;;;;4899044;29;20032;-75
2021/04/06 09:23:55;;;;;;;13.80;3.92;;;5.50;96.70;;;;;;4875338;29;20580;-75
2021/04/06 09:26:22;;;;;;;10.40;2.90;;;5.30;96.30;;;;;;4895840;29;20128;-76
2021/04/06 09:28:58;;;;;;;10.48;3.80;;;5.30;96.40;;;;;;4898930;29;20048;-76
2021/04/06 09:31:26;;;;;;;7.90;3.63;;;5.60;96.10;;;;;;4893092;29;20088;-76
2021/04/06 09:33:51;;;;;;;11.45;3.95;;;5.90;95.90;;;;;;4897688;29;20044;-75
2021/04/06 09:36:17;;;;;;;7.20;3.60;;;7.00;90.70;;;;;;4898687;29;20035;-78
2021/04/06 09:38:43;;;;;;;8.90;3.70;;;7.00;90.80;;;;;;4880505;29;20031;-76
2021/04/06 09:41:11;;;;;;;9.70;3.75;;;7.40;88.00;;;;;;4894169;29;20032;-77
2021/04/06 09:43:37;;;;;;;10.05;3.90;;;7.00;87.60;;;;;;4889941;29;20025;-74
2021/04/06 09:46:03;;;;;;;6.25;3.25;;;6.80;88.30;;;;;;4884318;29;20155;-77
2021/04/06 09:48:28;;;;;;;8.18;3.60;;;6.60;90.00;;;;;;4872943;29;20062;-77
2021/04/06 09:51:06;;;;;;;10.60;3.25;;;6.50;91.00;;;;;;4896244;29;20475;-78
2021/04/06 09:53:36;;;;;;;9.40;3.40;;;6.60;90.90;;;;;;4894239;29;20044;-76
2021/04/06 09:56:02;;;;;;;8.35;3.00;;;8.30;84.60;;;;;;4886587;29;20041;-77
2021/04/06 09:58:28;;;;;;;6.22;3.20;;;9.40;72.90;;;;;;4866510;29;20049;-78
2021/04/06 10:00:54;;;;;;;7.60;3.65;;;10.10;68.90;;;;;;4881631;29;20036;-77
2021/04/06 10:03:25;;;;;;;10.48;3.88;;;10.10;69.20;;;;;;4894259;29;20116;-76
2021/04/06 10:06:13;;;;;;;8.18;3.17;;;11.10;61.50;;;;;;4887920;29;20029;-76
2021/04/06 10:08:38;;;;;;;10.82;3.53;;;10.90;61.80;;;;;;4892530;29;20025;-75
2021/04/06 10:11:04;;;;;;;5.72;3.20;;;9.90;62.60;;;;;;4898120;29;20044;-75
2021/04/06 10:13:31;;;;;;;7.45;3.10;;;9.80;63.70;;;;;;4888451;29;20032;-76
2021/04/06 10:16:13;;;;;;;10.43;3.10;;;9.30;65.40;;;;;;4870013;29;20485;-77
2021/04/06 10:18:41;;;;;;;8.95;3.28;;;9.30;67.00;;;;;;4868252;29;20029;-77
2021/04/06 10:21:22;;;;;;;9.40;3.40;;;9.30;65.20;;;;;;4893353;29;20033;-79
2021/04/06 10:23:48;;;;;;;5.68;2.50;;;8.70;66.30;;;;;;4887293;29;20028;-77
2021/04/06 10:26:20;;;;;;;8.88;3.25;;;8.60;67.50;;;;;;4873405;29;20424;-80
2021/04/06 10:28:46;;;;;;;7.43;2.95;;;10.70;64.20;;;;;;4887099;29;20029;-78
2021/04/06 10:31:15;;;;;;;6.43;3.25;;;13.00;57.10;;;;;;4888079;29;20037;-76
2021/04/06 10:33:41;;;;;;;9.25;3.33;;;13.60;53.00;;;;;;4887801;29;20024;-78
2021/04/06 10:36:20;;;;;;;6.55;2.78;;;11.50;54.50;;;;;;4893002;29;20032;-75
2021/04/06 10:38:46;;;;;;;5.10;2.40;;;11.40;55.60;;;;;;4884367;29;20490;-78
2021/04/06 10:41:15;;;;;;;6.22;2.60;;;10.60;56.20;;;;;;4883527;29;20156;-78
2021/04/06 10:43:47;;;;;;;7.10;3.00;;;10.00;57.40;;;;;;4886448;29;20025;-77
2021/04/06 10:46:25;;;;;;;8.35;3.05;;;9.40;59.20;;;;;;4897476;29;20047;-77
2021/04/06 10:49:11;;;;;;;7.63;2.78;;;9.00;60.80;;;;;;4885308;29;20029;-76
2021/04/06 10:51:51;;;;;;;4.95;2.70;;;8.50;62.70;;;;;;4893021;29;20041;-78
2021/04/06 10:54:18;;;;;;;6.25;2.80;;;9.40;62.20;;;;;;4895574;29;20032;-77
2021/04/06 10:56:59;;;;;;;6.22;2.35;;;10.00;58.30;;;;;;4894216;29;20032;-80
2021/04/06 10:59:29;;;;;;;;;;;10.00;58.80;;;;;;4892118;29;20043;-79
2021/04/06 11:01:55;;;;;;;5.82;2.40;;;9.30;60.00;;;;;;4887424;29;20378;-78
2021/04/06 11:04:30;;;;;;;5.53;2.58;;;8.60;63.30;;;;;;4899952;29;20040;-76
2021/04/06 11:07:02;;;;;;;4.43;2.15;;;7.90;67.70;;;;;;4894057;29;20045;-77
2021/04/06 11:09:40;;;;;;;6.53;2.75;;;7.70;76.60;;;;;;4887702;29;20035;-78
2021/04/06 11:12:07;;;;;;;5.72;2.28;;;7.80;77.10;;;;;;4892542;29;20136;-79
2021/04/06 11:14:43;;;;;;;12.15;3.42;;;9.10;73.30;;;;;;4898425;29;20033;-78
2021/04/06 11:17:10;;;;;;;6.43;3.10;;;9.30;69.60;;;;;;4889886;29;20035;-77
2021/04/06 11:19:43;;;;;;;7.97;3.08;;;8.80;67.40;;;;;;4891259;29;20379;-82
2021/04/06 11:22:11;;;;;;;4.47;2.38;;;8.60;67.40;;;;;;4896008;29;20554;-77
2021/04/06 11:24:38;;;;;;;5.15;3.28;;;8.50;67.70;;;;;;4877448;29;20115;-80
2021/04/06 11:27:05;;;;;;;7.50;2.83;;;8.80;67.50;;;;;;4901917;29;20115;-79
2021/04/06 11:29:33;;;;;;;4.32;2.17;;;9.70;64.30;;;;;;4903171;29;20383;-79
2021/04/06 11:32:04;;;;;;;6.03;2.80;;;10.90;57.90;;;;;;4889181;29;20129;-77
2021/04/06 11:34:31;;;;;;;5.28;2.40;;;11.30;58.10;;;;;;4899911;29;20032;-78
2021/04/06 11:36:58;;;;;;;3.72;2.10;;;12.80;55.30;;;;;;4898262;29;20123;-77
2021/04/06 11:39:28;;;;;;;6.53;3.08;;;13.90;51.90;;;;;;4888017;29;20029;-78
2021/04/06 11:41:54;;;;;;;6.35;3.03;;;13.00;53.40;;;;;;4893263;29;20040;-77
2021/04/06 11:44:20;;;;;;;4.15;2.25;;;13.10;52.30;;;;;;4895944;29;20024;-79
2021/04/06 11:46:47;;;;;;;7.68;2.78;;;12.60;52.20;;;;;;4894889;29;20112;-78
2021/04/06 11:49:15;;;;;;;8.05;3.47;;;13.30;52.40;;;;;;4895275;29;20067;-80
2021/04/06 11:51:41;;;;;;;5.75;3.22;;;14.60;49.70;;;;;;4898298;29;20029;-78
2021/04/06 11:54:09;;;;;;;9.05;4.80;;;15.30;47.60;;;;;;4899331;29;20037;-79
2021/04/06 11:56:35;;;;;;;7.95;3.60;;;15.90;44.00;;;;;;4874165;29;20092;-78
2021/04/06 11:59:00;;;;;;;5.75;2.08;;;15.90;44.50;;;;;;4892858;29;20029;-79
2021/04/06 12:01:28;;;;;;;3.88;2.28;;;15.50;43.40;;;;;;4891515;29;20029;-80
2021/04/06 12:03:54;;;;;;;7.00;2.70;;;13.70;45.50;;;;;;4898480;29;20120;-79
2021/04/06 12:06:19;;;;;;;4.03;1.92;;;13.20;48.20;;;;;;4895245;29;20111;-78
2021/04/06 12:08:45;;;;;;;6.03;2.45;;;13.60;48.00;;;;;;4894950;29;20021;-79
2021/04/06 12:11:11;;;;;;;5.53;1.90;;;14.90;47.20;;;;;;4897775;29;20032;-79
2021/04/06 12:13:37;;;;;;;6.60;2.45;;;16.50;43.10;;;;;;4891331;29;20365;-80
2021/04/06 12:16:05;;;;;;;5.63;2.13;;;17.00;41.00;;;;;;4894628;29;20119;-79
2021/04/06 12:18:31;;;;;;;5.82;2.88;;;16.80;41.60;;;;;;4887260;29;20064;-79
2021/04/06 12:20:56;;;;;;;5.90;2.78;;;15.60;42.70;;;;;;4896186;29;20074;-80
2021/04/06 12:23:22;;;;;;;5.53;2.20;;;14.00;46.10;;;;;;4898552;29;20025;-80
2021/04/06 12:25:50;;;;;;;8.25;3.30;;;12.90;49.10;;;;;;4898813;29;20032;-78
2021/04/06 12:28:16;;;;;;;4.93;2.30;;;9.90;56.40;;;;;;4883005;29;20047;-82
2021/04/06 12:30:41;;;;;;;5.97;2.95;;;9.10;60.50;;;;;;4889601;29;20651;-78
2021/04/06 12:33:07;;;;;;;8.52;4.18;;;8.90;59.20;;;;;;4892760;29;20428;-78
2021/04/06 12:35:33;;;;;;;6.55;3.58;;;8.90;62.20;;;;;;4883691;29;20039;-78
2021/04/06 12:37:58;;;;;;;8.43;3.03;;;8.20;63.90;;;;;;4899305;29;20052;-77
2021/04/06 12:40:28;;;;;;;4.13;2.15;;;8.10;64.90;;;;;;4902760;29;20522;-80
2021/04/06 12:42:54;;;;;;;4.95;1.67;;;;;;;;;;4899783;29;20032;-77
2021/04/06 12:45:20;;;;;;;4.63;1.80;;;9.70;51.90;;;;;;4904575;29;20045;-79
2021/04/06 12:47:46;;;;;;;3.88;2.03;;;9.50;52.20;;;;;;4891865;29;20137;-80
2021/04/06 12:50:12;;;;;;;4.35;2.30;;;9.60;52.10;;;;;;4869239;29;20025;-78
2021/04/06 12:52:38;;;;;;;7.00;2.55;;;8.50;54.10;;;;;;4885893;29;20044;-77
2021/04/06 12:55:05;;;;;;;9.50;3.13;;;8.30;55.00;;;;;;4895894;29;20571;-78
2021/04/06 12:57:30;;;;;;;5.63;2.10;;;8.50;54.20;;;;;;4894959;29;20115;-77
2021/04/06 12:59:57;;;;;;;6.22;1.75;;;11.80;45.80;;;;;;4895047;29;20064;-79
2021/04/06 13:02:23;;;;;;;4.35;1.80;;;;;;;;;;4898824;29;20025;-78
2021/04/06 13:04:49;;;;;;;4.68;1.88;;;12.70;45.00;;;;;;4897201;29;20511;-79
2021/04/06 13:07:16;;;;;;;4.32;2.30;;;12.40;45.00;;;;;;4895885;29;20033;-79
2021/04/06 13:09:42;;;;;;;5.05;1.98;;;11.60;47.50;;;;;;4896644;29;20090;-77
2021/04/06 13:12:07;;;;;;;4.53;2.25;;;10.00;48.50;;;;;;4894983;29;20112;-77
2021/04/06 13:14:34;;;;;;;5.30;1.70;;;9.90;48.60;;;;;;4894329;29;20103;-78